createdAt,value
2022-08-21T00:00:49.916Z,100689.94
2022-08-21T00:03:51.982Z,100684.34
2022-08-21T00:06:54.313Z,100679.72
2022-08-21T00:09:56.504Z,100681.97
2022-08-21T00:12:59.014Z,100677.00
2022-08-21T00:16:01.627Z,100664.28
2022-08-21T00:19:04.611Z,100659.88
2022-08-21T00:22:06.350Z,100668.97
2022-08-21T00:25:09.205Z,100669.13
2022-08-21T00:28:11.942Z,100676.72
2022-08-21T00:31:14.036Z,100671.81
2022-08-21T00:34:15.905Z,100676.03
2022-08-21T00:37:19.714Z,100675.84
2022-08-21T00:40:27.369Z,100682.44
2022-08-21T00:43:32.442Z,100677.84
2022-08-21T00:46:34.354Z,100676.78
2022-08-21T00:49:36.196Z,100675.16
2022-08-21T00:52:39.299Z,100678.22
2022-08-21T00:55:42.137Z,100680.44
2022-08-21T00:58:47.066Z,100677.47
2022-08-21T01:01:51.730Z,100674.97
2022-08-21T01:04:53.810Z,100679.38
2022-08-21T01:07:58.043Z,100677.03
2022-08-21T01:11:00.777Z,100684.22
2022-08-21T01:14:05.047Z,100685.84
2022-08-21T01:17:07.989Z,100681.75
2022-08-21T01:20:12.239Z,100686.16
2022-08-21T01:23:14.334Z,100683.53
2022-08-21T01:26:19.132Z,100691.50
2022-08-21T01:29:46.326Z,100694.09
2022-08-21T01:32:49.104Z,100696.88
2022-08-21T01:35:50.998Z,100691.66
2022-08-21T01:38:53.032Z,100690.69
2022-08-21T01:41:54.790Z,100692.19
2022-08-21T01:44:57.583Z,100689.69
2022-08-21T01:47:59.229Z,100681.75
2022-08-21T01:51:01.146Z,100676.03
2022-08-21T01:54:02.974Z,100676.84
2022-08-21T01:57:05.311Z,100671.06
2022-08-21T02:00:12.153Z,100670.25
2022-08-21T02:03:14.167Z,100657.22
2022-08-21T02:06:28.334Z,100661.19
2022-08-21T02:09:30.411Z,100664.47
2022-08-21T02:12:32.833Z,100655.53
2022-08-21T02:15:34.701Z,100667.91
2022-08-21T02:18:37.063Z,100656.94
2022-08-21T02:21:39.075Z,100653.13
2022-08-21T02:24:53.794Z,100646.56
2022-08-21T02:27:57.963Z,100649.31
2022-08-21T02:31:00.320Z,100639.56
2022-08-21T02:34:02.242Z,100640.53
2022-08-21T02:37:04.067Z,100638.09
2022-08-21T02:40:06.299Z,100642.63
2022-08-21T02:43:08.984Z,100640.31
2022-08-21T02:46:15.024Z,100641.84
2022-08-21T02:49:16.727Z,100643.41
2022-08-21T02:52:18.566Z,100643.00
2022-08-21T02:55:21.989Z,100640.53
2022-08-21T02:58:27.054Z,100635.19
2022-08-21T03:01:28.844Z,100631.34
2022-08-21T03:04:30.594Z,100624.50
2022-08-21T03:07:32.219Z,100625.59
2022-08-21T03:10:34.732Z,100626.56
2022-08-21T03:13:36.637Z,100623.69
2022-08-21T03:16:38.388Z,100625.31
2022-08-21T03:19:40.318Z,100624.50
2022-08-21T03:22:42.761Z,100626.41
2022-08-21T03:25:52.113Z,100635.72
2022-08-21T03:28:58.746Z,100630.13
2022-08-21T03:32:00.782Z,100625.16
2022-08-21T03:35:03.228Z,100619.34
2022-08-21T03:38:05.264Z,100628.66
2022-08-21T03:41:08.689Z,100623.84
2022-08-21T03:44:16.668Z,100631.22
2022-08-21T03:47:18.380Z,100630.47
2022-08-21T03:50:20.140Z,100629.75
2022-08-21T03:53:22.292Z,100630.38
2022-08-21T03:56:24.577Z,100633.34
2022-08-21T03:59:26.523Z,100634.16
2022-08-21T04:02:28.719Z,100634.84
2022-08-21T04:05:31.039Z,100627.38
2022-08-21T04:08:32.792Z,100630.38
2022-08-21T04:11:35.806Z,100631.03
2022-08-21T04:14:38.459Z,100646.25
2022-08-21T04:17:40.286Z,100637.84
2022-08-21T04:20:45.233Z,100641.09
2022-08-21T04:23:51.797Z,100636.41
2022-08-21T04:26:53.502Z,100636.09
2022-08-21T04:29:55.243Z,100643.78
2022-08-21T04:32:59.167Z,100640.69
2022-08-21T04:36:01.094Z,100643.31
2022-08-21T04:39:03.577Z,100647.94
2022-08-21T04:42:08.595Z,100654.78
2022-08-21T04:45:10.367Z,100647.13
2022-08-21T04:48:14.474Z,100640.13
2022-08-21T04:51:24.156Z,100645.69
2022-08-21T04:54:26.147Z,100651.59
2022-08-21T04:57:36.723Z,100647.88
2022-08-21T05:00:52.999Z,100664.38
2022-08-21T05:04:00.063Z,100658.03
2022-08-21T05:07:07.093Z,100656.09
2022-08-21T05:10:09.434Z,100660.69
2022-08-21T05:13:13.576Z,100657.34
2022-08-21T05:16:16.967Z,100657.69
2022-08-21T05:19:38.951Z,100659.22
2022-08-21T05:22:41.538Z,100655.84
2022-08-21T05:25:44.480Z,100663.44
2022-08-21T05:28:47.742Z,100665.75
2022-08-21T05:31:50.027Z,100666.63
2022-08-21T05:34:51.839Z,100671.22
2022-08-21T05:37:53.786Z,100662.25
2022-08-21T05:40:55.982Z,100665.53
2022-08-21T05:43:57.735Z,100670.59
2022-08-21T05:47:12.974Z,100665.34
2022-08-21T05:50:14.936Z,100667.38
2022-08-21T05:53:18.563Z,100679.78
2022-08-21T05:56:20.559Z,100686.41
2022-08-21T05:59:23.085Z,100691.16
2022-08-21T06:02:24.935Z,100692.50
2022-08-21T06:05:36.591Z,100695.16
2022-08-21T06:08:39.495Z,100694.84
2022-08-21T06:11:41.349Z,100696.66
2022-08-21T06:14:43.273Z,100699.09
2022-08-21T06:17:45.322Z,100698.09
2022-08-21T06:20:47.054Z,100693.66
2022-08-21T06:23:48.823Z,100702.97
2022-08-21T06:26:50.983Z,100699.19
2022-08-21T06:29:52.675Z,100696.38
2022-08-21T06:32:54.374Z,100695.31
2022-08-21T06:35:56.178Z,100694.97
2022-08-21T06:38:58.121Z,100692.03
2022-08-21T06:42:00.701Z,100692.03
2022-08-21T06:45:04.934Z,100690.22
2022-08-21T06:48:08.303Z,100688.94
2022-08-21T06:51:10.392Z,100691.91
2022-08-21T06:54:12.162Z,100693.25
2022-08-21T06:57:13.906Z,100689.34
2022-08-21T07:00:15.878Z,100688.88
2022-08-21T07:03:28.268Z,100688.91
2022-08-21T07:06:30.239Z,100689.56
2022-08-21T07:09:35.787Z,100680.28
2022-08-21T07:12:37.713Z,100686.88
2022-08-21T07:15:40.526Z,100679.22
2022-08-21T07:18:42.605Z,100682.16
2022-08-21T07:21:44.783Z,100670.06
2022-08-21T07:24:46.741Z,100671.72
2022-08-21T07:27:48.392Z,100673.66
2022-08-21T07:30:56.730Z,100673.03
2022-08-21T07:33:58.990Z,100675.63
2022-08-21T07:37:00.673Z,100672.31
2022-08-21T07:40:08.920Z,100677.22
2022-08-21T07:43:10.994Z,100662.28
2022-08-21T07:46:14.017Z,100667.81
2022-08-21T07:49:16.188Z,100657.47
2022-08-21T07:52:18.114Z,100658.25
2022-08-21T07:55:21.007Z,100657.41
2022-08-21T07:58:22.817Z,100661.66
2022-08-21T08:01:25.316Z,100655.84
2022-08-21T08:04:27.081Z,100657.59
2022-08-21T08:07:28.889Z,100655.72
2022-08-21T08:10:30.788Z,100652.59
2022-08-21T08:13:32.828Z,100660.47
2022-08-21T08:16:34.687Z,100653.19
2022-08-21T08:19:36.422Z,100656.59
2022-08-21T08:22:40.105Z,100660.53
2022-08-21T08:25:42.193Z,100647.03
2022-08-21T08:28:44.227Z,100656.44
2022-08-21T08:31:45.943Z,100650.50
2022-08-21T08:34:52.471Z,100644.88
2022-08-21T08:37:54.032Z,100652.19
2022-08-21T08:41:17.154Z,100644.78
2022-08-21T08:44:20.262Z,100648.56
2022-08-21T08:47:22.319Z,100643.50
2022-08-21T08:50:52.829Z,100644.06
2022-08-21T08:54:08.340Z,100651.59
2022-08-21T08:57:24.679Z,100642.00
2022-08-21T09:00:26.640Z,100630.66
2022-08-21T09:03:29.386Z,100637.66
2022-08-21T09:06:49.902Z,100632.56
2022-08-21T09:10:10.498Z,100636.63
2022-08-21T09:13:33.363Z,100632.25
2022-08-21T09:17:11.113Z,100634.59
2022-08-21T09:20:24.719Z,100621.56
2022-08-21T09:23:43.683Z,100630.34
2022-08-21T09:27:06.104Z,100622.25
2022-08-21T09:30:09.109Z,100634.19
2022-08-21T09:33:13.723Z,100617.84
2022-08-21T09:36:27.178Z,100618.97
2022-08-21T09:39:32.725Z,100628.28
2022-08-21T09:42:42.119Z,100621.44
2022-08-21T09:45:46.330Z,100630.06
2022-08-21T09:48:51.532Z,100619.69
2022-08-21T09:51:55.699Z,100629.16
2022-08-21T09:54:58.225Z,100630.59
2022-08-21T09:58:00.559Z,100625.81
2022-08-21T10:01:05.532Z,100611.59
2022-08-21T10:04:11.416Z,100619.59
2022-08-21T10:07:15.657Z,100618.94
2022-08-21T10:10:28.904Z,100618.59
2022-08-21T10:13:52.429Z,100609.94
2022-08-21T10:17:13.629Z,100615.66
2022-08-21T10:20:40.600Z,100606.81
2022-08-21T10:23:54.576Z,100610.88
2022-08-21T10:27:11.388Z,100610.25
2022-08-21T10:30:25.265Z,100607.00
2022-08-21T10:33:29.602Z,100606.59
2022-08-21T10:36:57.558Z,100602.00
2022-08-21T10:40:25.605Z,100599.00
2022-08-21T10:44:02.551Z,100595.03
2022-08-21T10:47:33.888Z,100598.34
2022-08-21T10:51:17.329Z,100585.81
2022-08-21T10:54:39.146Z,100578.31
2022-08-21T10:58:01.956Z,100578.50
2022-08-21T11:01:25.669Z,100578.50
2022-08-21T11:04:49.108Z,100580.31
2022-08-21T11:08:01.607Z,100579.09
2022-08-21T11:11:13.216Z,100587.22
2022-08-21T11:14:22.879Z,100592.50
2022-08-21T11:17:35.629Z,100591.09
2022-08-21T11:20:44.981Z,100586.59
2022-08-21T11:23:53.930Z,100587.22
2022-08-21T11:27:18.616Z,100589.88
2022-08-21T11:30:20.667Z,100588.09
2022-08-21T11:33:53.405Z,100590.69
2022-08-21T11:37:32.887Z,100581.31
2022-08-21T11:40:59.407Z,100582.75
2022-08-21T11:44:26.841Z,100581.94
2022-08-21T11:47:54.915Z,100577.88
2022-08-21T11:50:59.207Z,100573.94
2022-08-21T11:54:19.648Z,100580.94
2022-08-21T11:57:48.054Z,100578.28
2022-08-21T12:00:55.365Z,100577.69
2022-08-21T12:04:30.550Z,100571.75
2022-08-21T12:07:46.023Z,100583.97
2022-08-21T12:11:00.371Z,100572.91
2022-08-21T12:14:14.419Z,100570.28
2022-08-21T12:17:27.993Z,100572.97
2022-08-21T12:20:57.646Z,100576.09
2022-08-21T12:24:41.435Z,100567.97
2022-08-21T12:28:03.042Z,100572.03
2022-08-21T12:31:05.148Z,100573.50
2022-08-21T12:34:11.644Z,100571.13
2022-08-21T12:37:41.687Z,100576.41
2022-08-21T12:40:58.403Z,100564.91
2022-08-21T12:44:10.017Z,100561.66
2022-08-21T12:47:34.290Z,100555.31
2022-08-21T12:50:49.249Z,100550.00
2022-08-21T12:53:57.426Z,100550.50
2022-08-21T12:57:02.463Z,100549.44
2022-08-21T13:00:15.581Z,100561.41
2022-08-21T13:03:17.702Z,100548.44
2022-08-21T13:06:22.447Z,100554.31
2022-08-21T13:09:31.131Z,100552.00
2022-08-21T13:12:34.684Z,100550.63
2022-08-21T13:15:39.847Z,100542.84
2022-08-21T13:19:06.477Z,100543.66
2022-08-21T13:22:33.209Z,100534.56
2022-08-21T13:25:38.791Z,100543.63
2022-08-21T13:28:40.800Z,100547.22
2022-08-21T13:31:56.209Z,100531.09
2022-08-21T13:34:58.803Z,100542.63
2022-08-21T13:38:01.160Z,100544.81
2022-08-21T13:41:28.386Z,100542.75
2022-08-21T13:44:40.979Z,100541.28
2022-08-21T13:47:44.504Z,100542.09
2022-08-21T13:50:46.929Z,100538.56
2022-08-21T13:53:57.370Z,100534.47
2022-08-21T13:56:58.924Z,100531.03
2022-08-21T14:00:13.582Z,100540.69
2022-08-21T14:03:49.898Z,100541.31
2022-08-21T14:06:53.207Z,100545.41
2022-08-21T14:09:56.095Z,100537.00
2022-08-21T14:13:07.004Z,100539.06
2022-08-21T14:16:43.189Z,100532.28
2022-08-21T14:19:46.795Z,100530.03
2022-08-21T14:22:49.294Z,100544.97
2022-08-21T14:25:51.200Z,100535.47
2022-08-21T14:28:53.619Z,100535.53
2022-08-21T14:31:59.130Z,100529.94
2022-08-21T14:35:01.196Z,100531.59
2022-08-21T14:38:03.178Z,100533.78
2022-08-21T14:41:28.747Z,100535.03
2022-08-21T14:44:30.538Z,100531.56
2022-08-21T14:47:32.471Z,100529.66
2022-08-21T14:50:34.729Z,100528.50
2022-08-21T14:53:36.619Z,100532.22
2022-08-21T14:56:38.665Z,100530.38
2022-08-21T14:59:40.820Z,100532.34
2022-08-21T15:02:42.589Z,100526.00
2022-08-21T15:05:44.513Z,100519.78
2022-08-21T15:08:46.196Z,100520.13
2022-08-21T15:11:48.499Z,100527.34
2022-08-21T15:14:50.547Z,100526.00
2022-08-21T15:17:53.325Z,100530.47
2022-08-21T15:20:55.279Z,100523.75
2022-08-21T15:23:57.389Z,100519.13
2022-08-21T15:27:02.230Z,100525.00
2022-08-21T15:30:05.329Z,100527.19
2022-08-21T15:33:08.063Z,100525.38
2022-08-21T15:36:10.073Z,100529.22
2022-08-21T15:39:11.971Z,100522.72
2022-08-21T15:42:14.353Z,100520.72
2022-08-21T15:45:16.243Z,100519.91
2022-08-21T15:48:18.172Z,100522.31
2022-08-21T15:51:20.479Z,100526.81
2022-08-21T15:54:22.162Z,100524.84
2022-08-21T15:57:25.374Z,100514.63
2022-08-21T16:00:28.912Z,100518.72
2022-08-21T16:03:30.760Z,100519.38
2022-08-21T16:06:37.474Z,100520.41
2022-08-21T16:09:40.802Z,100523.59
2022-08-21T16:12:46.369Z,100524.22
2022-08-21T16:15:48.264Z,100527.38
2022-08-21T16:18:51.579Z,100516.09
2022-08-21T16:21:54.786Z,100517.53
2022-08-21T16:24:56.629Z,100510.81
2022-08-21T16:28:01.596Z,100510.31
2022-08-21T16:31:04.196Z,100504.25
2022-08-21T16:34:06.043Z,100506.56
2022-08-21T16:37:07.962Z,100504.88
2022-08-21T16:40:10.789Z,100507.28
2022-08-21T16:43:13.050Z,100503.66
2022-08-21T16:46:16.402Z,100507.78
2022-08-21T16:49:18.614Z,100500.28
2022-08-21T16:52:20.233Z,100503.03
2022-08-21T16:55:21.862Z,100511.56
2022-08-21T16:58:32.627Z,100507.69
2022-08-21T17:01:36.370Z,100499.41
2022-08-21T17:04:39.468Z,100497.13
2022-08-21T17:07:43.208Z,100500.41
2022-08-21T17:10:48.130Z,100504.28
2022-08-21T17:13:49.989Z,100503.81
2022-08-21T17:16:54.658Z,100506.47
2022-08-21T17:19:56.326Z,100502.44
2022-08-21T17:22:58.831Z,100510.06
2022-08-21T17:26:01.473Z,100508.25
2022-08-21T17:29:04.576Z,100503.97
2022-08-21T17:32:12.924Z,100498.97
2022-08-21T17:35:14.711Z,100503.56
2022-08-21T17:38:16.509Z,100503.38
2022-08-21T17:41:20.321Z,100499.22
2022-08-21T17:44:22.362Z,100498.69
2022-08-21T17:47:24.702Z,100508.63
2022-08-21T17:50:26.515Z,100507.94
2022-08-21T17:53:29.380Z,100512.25
2022-08-21T17:56:34.343Z,100508.28
2022-08-21T17:59:36.598Z,100512.06
2022-08-21T18:02:40.158Z,100518.28
2022-08-21T18:05:43.646Z,100517.91
2022-08-21T18:08:46.534Z,100522.84
2022-08-21T18:11:48.314Z,100521.44
2022-08-21T18:14:50.271Z,100518.34
2022-08-21T18:17:52.434Z,100517.72
2022-08-21T18:20:55.913Z,100530.28
2022-08-21T18:23:57.646Z,100530.66
2022-08-21T18:26:59.423Z,100531.84
2022-08-21T18:30:01.638Z,100537.25
2022-08-21T18:33:03.559Z,100543.47
2022-08-21T18:36:05.762Z,100540.34
2022-08-21T18:39:34.228Z,100556.25
2022-08-21T18:42:35.115Z,100558.81
2022-08-21T18:45:38.663Z,100550.00
2022-08-21T18:48:42.658Z,100554.75
2022-08-21T18:51:45.471Z,100561.56
2022-08-21T18:54:49.833Z,100559.44
2022-08-21T18:57:54.398Z,100567.50
2022-08-21T19:00:57.098Z,100565.75
2022-08-21T19:03:59.085Z,100573.63
2022-08-21T19:07:00.734Z,100577.38
2022-08-21T19:10:27.384Z,100580.94
2022-08-21T19:13:28.397Z,100579.88
2022-08-21T19:16:30.502Z,100580.59
2022-08-21T19:19:34.401Z,100580.69
2022-08-21T19:22:36.594Z,100579.78
2022-08-21T19:25:42.446Z,100579.53
2022-08-21T19:28:49.312Z,100576.00
2022-08-21T19:31:51.284Z,100577.94
2022-08-21T19:34:52.980Z,100587.16
2022-08-21T19:37:54.822Z,100582.19
2022-08-21T19:40:57.320Z,100577.41
2022-08-21T19:44:02.839Z,100586.25
2022-08-21T19:47:07.689Z,100583.16
2022-08-21T19:50:17.590Z,100584.34
2022-08-21T19:53:19.926Z,100581.09
2022-08-21T19:56:27.131Z,100579.28
2022-08-21T19:59:28.910Z,100586.50
2022-08-21T20:02:30.944Z,100587.22
2022-08-21T20:05:39.712Z,100586.91
2022-08-21T20:08:42.406Z,100587.19
2022-08-21T20:11:51.672Z,100586.94
2022-08-21T20:14:53.636Z,100586.88
2022-08-21T20:17:55.242Z,100592.97
2022-08-21T20:20:57.903Z,100587.75
2022-08-21T20:24:00.063Z,100590.53
2022-08-21T20:27:06.081Z,100588.91
2022-08-21T20:30:25.799Z,100589.88
2022-08-21T20:33:27.616Z,100585.34
2022-08-21T20:36:29.244Z,100590.44
2022-08-21T20:39:30.998Z,100592.13
2022-08-21T20:42:32.738Z,100591.34
2022-08-21T20:45:36.174Z,100590.75
2022-08-21T20:48:49.312Z,100597.00
2022-08-21T20:51:53.136Z,100595.88
2022-08-21T20:55:03.595Z,100604.88
2022-08-21T20:58:20.941Z,100595.72
2022-08-21T21:01:23.334Z,100604.41
2022-08-21T21:04:37.400Z,100600.03
2022-08-21T21:08:07.037Z,100607.06
2022-08-21T21:11:18.615Z,100611.28
2022-08-21T21:14:24.955Z,100606.72
2022-08-21T21:17:38.162Z,100607.06
2022-08-21T21:21:18.481Z,100605.09
2022-08-21T21:24:27.730Z,100611.81
2022-08-21T21:27:37.419Z,100607.41
2022-08-21T21:30:46.486Z,100619.97
2022-08-21T21:33:48.676Z,100618.81
2022-08-21T21:37:12.691Z,100617.88
2022-08-21T21:40:20.072Z,100618.00
2022-08-21T21:43:59.729Z,100627.81
2022-08-21T21:47:15.583Z,100624.59
2022-08-21T21:50:51.307Z,100627.00
2022-08-21T21:54:19.076Z,100633.06
2022-08-21T21:57:46.825Z,100634.72
2022-08-21T22:01:02.926Z,100629.47
2022-08-21T22:04:28.401Z,100636.53
2022-08-21T22:07:57.978Z,100638.63
2022-08-21T22:14:40.441Z,100629.66
2022-08-21T22:18:09.345Z,100632.59
2022-08-21T22:21:17.121Z,100625.38
2022-08-21T22:24:28.088Z,100641.91
2022-08-21T22:27:34.338Z,100644.53
2022-08-21T22:30:50.031Z,100632.91
2022-08-21T22:34:17.711Z,100636.50
2022-08-21T22:37:20.234Z,100637.47
2022-08-21T22:40:29.197Z,100637.59
2022-08-21T22:43:31.231Z,100624.19
2022-08-21T22:46:39.447Z,100627.41
2022-08-21T22:49:49.543Z,100631.13
2022-08-21T22:52:57.023Z,100639.44
2022-08-21T22:56:01.765Z,100629.91
2022-08-21T22:59:07.322Z,100631.84
2022-08-21T23:02:34.037Z,100638.16
2022-08-21T23:05:37.500Z,100633.72
2022-08-21T23:08:39.317Z,100640.38
2022-08-21T23:11:43.988Z,100649.50
2022-08-21T23:14:45.874Z,100649.00
2022-08-21T23:17:56.519Z,100649.00
2022-08-21T23:21:10.029Z,100641.31
2022-08-21T23:24:56.113Z,100650.75
2022-08-21T23:28:09.315Z,100646.03
2022-08-21T23:31:22.679Z,100649.59
2022-08-21T23:34:43.177Z,100641.09
2022-08-21T23:38:00.041Z,100645.34
2022-08-21T23:41:16.760Z,100652.53
2022-08-21T23:45:05.251Z,100651.50
2022-08-21T23:48:39.717Z,100653.59
2022-08-21T23:52:02.521Z,100655.69
2022-08-21T23:55:11.627Z,100654.50
2022-08-21T23:58:34.574Z,100659.50
